Time;durP1;ratioP1;P1;durP2;ratioP2;P2;SDS_P1;SDS_P2;PMS_P1;PMS_P2;Temp;Humidity;BMP_temperature;BMP_pressure;BME280_temperature;BME280_humidity;BME280_pressure;Samples;Min_cycle;Max_cycle;Signal;HPM_P1;HPM_P2
2023/11/30 00:01:54;;;;;;;3.67;1.90;;;0.60;99.90;;;;;;6166367;23;20029;-83
2023/11/30 00:04:21;;;;;;;6.70;1.80;;;0.50;99.90;;;;;;6192177;23;20029;-83
2023/11/30 00:06:51;;;;;;;3.83;1.83;;;0.50;99.90;;;;;;6190473;23;20025;-83
2023/11/30 00:09:19;;;;;;;3.00;1.40;;;0.50;99.90;;;;;;6141592;23;20443;-84
2023/11/30 00:11:46;;;;;;;3.53;1.33;;;0.50;99.90;;;;;;6166507;23;20343;-87
2023/11/30 00:14:22;;;;;;;3.27;1.60;;;0.50;99.90;;;;;;6190496;23;20324;-85
2023/11/30 00:16:51;;;;;;;3.63;1.50;;;0.50;99.90;;;;;;6166131;23;20027;-85
2023/11/30 00:19:21;;;;;;;3.70;1.50;;;0.50;99.90;;;;;;6190933;23;20020;-87
2023/11/30 00:21:51;;;;;;;3.87;1.50;;;0.50;99.90;;;;;;6142292;23;20048;-84
2023/11/30 00:24:18;;;;;;;4.33;1.70;;;0.40;99.90;;;;;;6167361;23;20016;-84
2023/11/30 00:26:53;;;;;;;4.10;1.80;;;0.40;99.90;;;;;;6173310;23;20434;-86
2023/11/30 00:29:27;;;;;;;4.30;1.93;;;0.40;99.90;;;;;;6190878;23;20032;-86
2023/11/30 00:32:52;;;;;;;3.43;1.30;;;0.40;99.90;;;;;;6167690;23;20020;-86
2023/11/30 00:35:56;;;;;;;;;;;;;;;;;;;;;
2023/11/30 00:43:15;;;;;;;2.37;1.10;;;0.30;99.90;;;;;;6094847;23;20069;-85
2023/11/30 00:49:20;;;;;;;3.43;1.40;;;0.20;99.90;;;;;;6072434;23;20050;-85
2023/11/30 00:51:57;;;;;;;;;;;;;;;;;;;;;
2023/11/30 00:55:26;;;;;;;2.70;1.07;;;0.20;99.90;;;;;;5995194;23;20092;-85
2023/11/30 00:58:32;;;;;;;2.57;1.00;;;0.20;99.90;;;;;;6005939;23;20016;-85
2023/11/30 01:01:58;;;;;;;2.27;0.90;;;0.20;99.90;;;;;;6038830;23;20019;-85
2023/11/30 01:05:39;;;;;;;2.37;1.03;;;0.20;99.90;;;;;;6039168;23;20022;-86
2023/11/30 01:12:51;;;;;;;3.17;1.10;;;0.20;99.90;;;;;;6189655;23;20029;-85
2023/11/30 01:15:59;;;;;;;2.92;0.93;;;0.20;99.90;;;;;;6165586;23;20004;-84
2023/11/30 01:23:11;;;;;;;2.57;0.83;;;0.30;99.90;;;;;;6124224;23;20052;-85
2023/11/30 01:26:18;;;;;;;2.40;0.93;;;0.30;99.90;;;;;;6075998;23;20025;-85
2023/11/30 01:29:23;;;;;;;2.30;0.90;;;0.30;99.90;;;;;;6037016;23;20027;-86
2023/11/30 01:33:18;;;;;;;2.93;1.60;;;0.20;99.90;;;;;;6026391;23;20151;-86
2023/11/30 01:35:55;;;;;;;1.80;0.73;;;0.20;99.90;;;;;;6066003;23;20114;-85
2023/11/30 01:39:45;;;;;;;2.80;0.93;;;0.20;99.90;;;;;;6061209;23;20091;-85
2023/11/30 01:42:43;;;;;;;2.67;0.93;;;0.20;99.90;;;;;;6043482;23;20461;-86
2023/11/30 01:45:34;;;;;;;2.57;1.07;;;0.20;99.90;;;;;;6066018;23;20026;-85
2023/11/30 01:49:09;;;;;;;;;;;;;;;;;;;;;
2023/11/30 01:51:39;;;;;;;;;;;0.30;99.90;;;;;;6129317;23;20021;-86
2023/11/30 01:59:16;;;;;;;2.63;0.87;;;0.40;99.90;;;;;;6069706;23;20002;-85
2023/11/30 02:02:44;;;;;;;4.07;1.70;;;0.40;99.90;;;;;;6136434;23;20379;-85
2023/11/30 02:06:01;;;;;;;3.20;1.37;;;0.50;99.90;;;;;;6165094;23;20020;-85
2023/11/30 02:08:36;;;;;;;3.30;1.20;;;0.50;99.90;;;;;;6164837;23;20032;-85
2023/11/30 02:11:10;;;;;;;3.07;1.30;;;0.60;99.90;;;;;;6165892;23;20027;-85
2023/11/30 02:13:44;;;;;;;5.93;1.40;;;0.60;99.90;;;;;;6168625;23;20423;-85
2023/11/30 02:16:20;;;;;;;3.37;1.30;;;0.60;99.90;;;;;;6166064;23;20020;-84
2023/11/30 02:19:35;;;;;;;3.33;1.40;;;0.70;99.90;;;;;;6164647;23;20028;-84
2023/11/30 02:22:13;;;;;;;3.47;1.63;;;0.70;99.90;;;;;;6165521;23;20048;-85
2023/11/30 02:24:54;;;;;;;3.00;1.30;;;0.70;99.90;;;;;;6169259;23;20087;-85
2023/11/30 02:27:49;;;;;;;3.80;1.60;;;0.70;99.90;;;;;;6144891;23;20127;-87
2023/11/30 02:30:34;;;;;;;4.07;1.20;;;0.70;99.90;;;;;;6194299;23;20088;-85
2023/11/30 02:33:51;;;;;;;3.33;1.73;;;0.70;99.90;;;;;;6187156;23;20542;-85
2023/11/30 02:36:26;;;;;;;3.47;1.40;;;0.70;99.90;;;;;;6164899;23;20025;-85
2023/11/30 02:39:52;;;;;;;3.37;1.50;;;0.70;99.90;;;;;;6189681;23;20028;-85
2023/11/30 02:43:10;;;;;;;4.80;1.60;;;0.70;99.90;;;;;;6167313;23;20024;-85
2023/11/30 02:46:17;;;;;;;3.40;1.57;;;0.80;99.90;;;;;;6188377;23;20027;-85
2023/11/30 02:49:26;;;;;;;3.63;1.80;;;0.80;99.90;;;;;;6162300;23;20024;-84
2023/11/30 02:52:11;;;;;;;;;;;;;;;;;;;;;
2023/11/30 02:54:50;;;;;;;3.80;1.70;;;0.80;99.90;;;;;;6171326;23;20354;-86
2023/11/30 03:01:28;;;;;;;3.00;1.23;;;0.90;99.90;;;;;;6172996;23;20032;-86
2023/11/30 03:04:46;;;;;;;;;;;;;;;;;;;;;
2023/11/30 03:07:20;;;;;;;3.70;1.50;;;0.90;99.90;;;;;;6189276;23;20021;-84
2023/11/30 03:09:47;;;;;;;4.17;1.80;;;0.90;99.90;;;;;;6166763;23;20024;-86
2023/11/30 03:12:23;;;;;;;4.10;1.63;;;0.90;99.90;;;;;;6166018;23;20431;-85
2023/11/30 03:15:31;;;;;;;3.73;1.77;;;1.00;99.90;;;;;;6177125;23;20031;-85
2023/11/30 03:18:20;;;;;;;5.57;2.10;;;0.90;99.90;;;;;;6080122;23;20456;-85
2023/11/30 03:21:19;;;;;;;4.20;2.00;;;1.00;99.90;;;;;;6077030;23;20069;-85
2023/11/30 03:24:20;;;;;;;3.67;1.60;;;1.00;99.90;;;;;;6100081;23;20029;-85
2023/11/30 03:27:30;;;;;;;3.33;1.47;;;1.00;99.90;;;;;;6090278;23;20028;-85
2023/11/30 03:30:31;;;;;;;3.03;1.57;;;1.00;99.90;;;;;;6078862;23;20018;-85
2023/11/30 03:38:43;;;;;;;4.70;2.00;;;1.00;99.90;;;;;;6117045;23;20032;-85
2023/11/30 03:41:56;;;;;;;3.77;1.60;;;1.00;99.90;;;;;;5987796;23;20047;-85
2023/11/30 03:45:32;;;;;;;3.20;1.40;;;1.00;99.90;;;;;;5904649;24;20364;-85
2023/11/30 03:53:26;;;;;;;4.10;1.58;;;0.90;99.90;;;;;;5889888;24;20022;-85
2023/11/30 04:01:46;;;;;;;3.47;1.33;;;0.80;99.90;;;;;;5910950;23;20016;-86
2023/11/30 04:05:13;;;;;;;3.93;1.87;;;0.70;99.90;;;;;;5874485;24;20030;-86
2023/11/30 04:13:28;;;;;;;2.87;1.17;;;0.70;99.90;;;;;;5876021;24;20013;-86
2023/11/30 04:17:05;;;;;;;2.80;1.00;;;0.60;99.90;;;;;;5849960;24;20480;-85
2023/11/30 04:23:34;;;;;;;6.73;2.07;;;0.60;99.90;;;;;;5822638;24;20404;-85
2023/11/30 04:26:04;;;;;;;4.17;1.67;;;0.60;99.90;;;;;;5800462;24;20101;-85
2023/11/30 04:29:43;;;;;;;3.00;1.40;;;0.60;99.90;;;;;;5941808;24;20474;-84
2023/11/30 04:33:11;;;;;;;3.90;1.30;;;0.60;99.90;;;;;;5884053;24;20122;-85
2023/11/30 04:35:53;;;;;;;4.77;1.50;;;0.60;99.90;;;;;;5876390;24;20056;-85
2023/11/30 04:39:04;;;;;;;;;;;;;;;;;;;;;
2023/11/30 04:42:00;;;;;;;3.33;1.07;;;0.70;99.90;;;;;;5890701;24;20026;-85
2023/11/30 04:45:09;;;;;;;3.50;1.23;;;0.70;99.90;;;;;;5995417;23;20555;-85
2023/11/30 04:47:48;;;;;;;3.50;1.27;;;0.70;99.90;;;;;;6029240;23;20034;-85
2023/11/30 04:53:55;;;;;;;3.13;1.33;;;0.70;99.90;;;;;;6042610;23;20023;-85
2023/11/30 04:57:11;;;;;;;3.97;1.40;;;0.70;99.90;;;;;;6042701;23;20023;-85
2023/11/30 04:59:41;;;;;;;4.53;1.47;;;0.70;99.90;;;;;;6019541;23;20057;-85
2023/11/30 05:07:17;;;;;;;2.70;1.07;;;0.70;99.90;;;;;;6145284;23;20476;-85
2023/11/30 05:10:50;;;;;;;3.15;1.30;;;0.70;99.90;;;;;;6117738;23;20100;-86
2023/11/30 05:14:31;;;;;;;;;;;;;;;;;;;;;
2023/11/30 05:17:36;;;;;;;3.10;1.30;;;0.70;99.90;;;;;;6187296;23;20020;-84
2023/11/30 05:20:37;;;;;;;3.30;1.50;;;0.70;99.90;;;;;;6141561;23;20442;-85
2023/11/30 05:23:08;;;;;;;3.53;1.08;;;0.70;99.90;;;;;;6165644;23;20099;-85
2023/11/30 05:34:26;;;;;;;4.87;2.27;;;0.80;99.90;;;;;;6124064;23;20069;-85
2023/11/30 05:42:39;;;;;;;3.90;1.70;;;0.80;99.90;;;;;;5954037;24;20508;-89
2023/11/30 05:45:38;;;;;;;4.23;1.47;;;0.80;99.90;;;;;;5930895;24;20012;-89
2023/11/30 05:52:30;;;;;;;3.23;1.27;;;0.80;99.90;;;;;;6010507;23;20082;-88
2023/11/30 06:00:43;;;;;;;3.93;1.73;;;0.80;99.90;;;;;;6125903;23;20413;-89
2023/11/30 06:07:46;;;;;;;;;;;;;;;;;;;;;
2023/11/30 06:11:44;;;;;;;;;;;;;;;;;;;;;
2023/11/30 06:15:24;;;;;;;;;;;;;;;;;;;;;
2023/11/30 06:26:48;;;;;;;;;;;;;;;;;;;;;
2023/11/30 06:30:04;;;;;;;3.40;1.60;;;1.10;99.90;;;;;;5775912;24;20088;-85
2023/11/30 06:32:52;;;;;;;3.73;1.43;;;1.10;99.90;;;;;;5795121;23;20022;-84
2023/11/30 06:35:31;;;;;;;4.87;1.73;;;1.20;99.90;;;;;;5966158;23;20089;-86
2023/11/30 06:38:45;;;;;;;;;;;;;;;;;;;;;
2023/11/30 06:42:05;;;;;;;;;;;;;;;;;;;;;
2023/11/30 06:45:52;;;;;;;;;;;;;;;;;;;;;
2023/11/30 06:49:29;;;;;;;3.55;1.30;;;1.30;99.90;;;;;;6104493;23;20021;-85
2023/11/30 06:56:32;;;;;;;6.13;2.00;;;1.30;99.90;;;;;;6155668;23;20580;-86
2023/11/30 07:00:12;;;;;;;5.07;2.00;;;1.30;99.90;;;;;;6150694;23;20101;-86
2023/11/30 07:03:30;;;;;;;;;;;1.30;99.90;;;;;;6134801;23;20092;-85
2023/11/30 07:06:46;;;;;;;;;;;;;;;;;;;;;
2023/11/30 07:10:26;;;;;;;3.07;1.23;;;1.40;99.90;;;;;;6198482;23;20446;-86
2023/11/30 07:13:19;;;;;;;4.20;1.63;;;1.40;99.90;;;;;;6161018;23;20103;-84
2023/11/30 07:20:32;;;;;;;5.07;2.33;;;1.40;99.90;;;;;;6182946;23;20040;-90
2023/11/30 07:36:22;;;;;;;6.17;3.00;;;1.50;99.90;;;;;;6185736;23;20072;-89
2023/11/30 07:39:00;;;;;;;5.73;2.67;;;1.50;99.90;;;;;;6138624;23;20021;-90
2023/11/30 07:41:39;;;;;;;5.82;2.42;;;1.40;99.90;;;;;;6138415;23;20103;-89
2023/11/30 07:44:39;;;;;;;7.80;3.80;;;1.50;99.90;;;;;;6137001;23;20025;-90
2023/11/30 07:48:15;;;;;;;;;;;;;;;;;;;;;
2023/11/30 07:51:57;;;;;;;;;;;;;;;;;;;;;
2023/11/30 07:56:03;;;;;;;8.60;3.60;;;1.50;99.90;;;;;;6200551;23;20099;-90
2023/11/30 07:59:06;;;;;;;;;;;;;;;;;;;;;
2023/11/30 08:02:38;;;;;;;8.87;4.13;;;1.50;99.90;;;;;;6009114;23;20419;-85
2023/11/30 08:05:09;;;;;;;7.63;3.70;;;1.50;99.90;;;;;;5961203;23;20018;-84
2023/11/30 08:08:05;;;;;;;8.67;4.20;;;1.50;99.90;;;;;;6169228;23;20021;-84
2023/11/30 08:11:07;;;;;;;6.47;3.35;;;1.50;99.90;;;;;;6174570;23;20021;-87
2023/11/30 08:13:51;;;;;;;9.60;3.97;;;1.50;99.90;;;;;;6193308;23;20120;-87
2023/11/30 08:17:10;;;;;;;;;;;;;;;;;;;;;
2023/11/30 08:20:14;;;;;;;7.83;3.37;;;1.60;99.90;;;;;;6191033;23;20012;-87
2023/11/30 08:22:44;;;;;;;10.53;5.23;;;1.60;99.90;;;;;;6190494;23;20051;-87
2023/11/30 08:25:41;;;;;;;9.93;4.90;;;1.60;99.90;;;;;;6190816;23;20029;-88
2023/11/30 08:29:26;;;;;;;9.23;4.47;;;1.60;99.90;;;;;;6137233;23;20025;-91
2023/11/30 08:32:12;;;;;;;10.07;4.22;;;1.60;99.90;;;;;;6137896;23;20025;-90
2023/11/30 08:34:42;;;;;;;8.57;4.40;;;1.60;99.90;;;;;;6157586;23;20095;-88
2023/11/30 08:37:44;;;;;;;7.17;3.93;;;1.70;99.90;;;;;;6172808;23;20013;-86
2023/11/30 08:41:49;;;;;;;;;;;;;;;;;;;;;
2023/11/30 08:44:45;;;;;;;11.27;3.83;;;1.80;99.90;;;;;;6125361;23;20018;-86
2023/11/30 08:52:28;;;;;;;6.63;2.90;;;1.90;99.90;;;;;;6097641;23;20561;-89
2023/11/30 08:56:27;;;;;;;6.17;3.17;;;1.90;99.90;;;;;;6038053;23;20090;-88
2023/11/30 08:59:29;;;;;;;7.55;3.78;;;1.90;99.90;;;;;;6032201;23;20027;-87
2023/11/30 09:11:08;;;;;;;6.18;2.90;;;1.90;99.90;;;;;;6065783;23;20018;-87
2023/11/30 09:13:35;;;;;;;10.20;5.23;;;2.00;99.90;;;;;;6078800;23;20026;-87
2023/11/30 09:16:02;;;;;;;10.25;4.15;;;2.00;99.90;;;;;;6076457;23;20032;-87
2023/11/30 09:18:30;;;;;;;10.67;5.20;;;2.10;99.90;;;;;;6100385;23;20026;-88
2023/11/30 09:21:00;;;;;;;9.85;4.78;;;2.10;99.90;;;;;;6151547;23;20048;-87
2023/11/30 09:23:29;;;;;;;9.10;4.75;;;2.00;99.90;;;;;;6160075;23;20045;-87
2023/11/30 09:25:56;;;;;;;9.23;4.63;;;2.10;99.90;;;;;;6160016;23;20017;-85
2023/11/30 09:28:26;;;;;;;8.07;4.22;;;2.10;99.90;;;;;;6159857;23;20021;-87
2023/11/30 09:30:54;;;;;;;8.73;4.30;;;2.20;99.90;;;;;;6159724;23;20021;-86
2023/11/30 09:33:26;;;;;;;8.68;4.47;;;2.20;99.90;;;;;;6135844;23;20067;-90
2023/11/30 09:35:54;;;;;;;8.13;3.72;;;2.20;99.90;;;;;;6136144;23;20017;-89
2023/11/30 09:38:21;;;;;;;9.18;3.92;;;2.20;99.90;;;;;;6160663;23;20021;-84
2023/11/30 09:40:50;;;;;;;7.60;3.85;;;2.30;99.90;;;;;;6136286;23;20091;-85
2023/11/30 09:43:17;;;;;;;9.43;5.10;;;2.30;99.90;;;;;;6135747;23;20033;-87
2023/11/30 09:45:46;;;;;;;9.52;4.78;;;2.30;99.90;;;;;;6160321;23;20124;-88
2023/11/30 09:48:14;;;;;;;8.50;3.88;;;2.30;99.90;;;;;;6161291;23;20025;-87
2023/11/30 09:50:41;;;;;;;9.70;3.80;;;2.30;99.90;;;;;;6136734;23;20025;-88
2023/11/30 09:53:10;;;;;;;9.40;4.88;;;2.30;99.90;;;;;;6135685;23;20021;-87
2023/11/30 09:55:37;;;;;;;10.88;4.85;;;2.40;99.90;;;;;;6136788;23;20055;-85
2023/11/30 09:58:05;;;;;;;10.60;5.35;;;2.40;99.90;;;;;;6161155;23;20466;-85
2023/11/30 10:00:32;;;;;;;9.50;4.43;;;2.40;99.90;;;;;;6137490;23;20021;-84
2023/11/30 10:03:00;;;;;;;8.63;4.65;;;2.50;99.90;;;;;;6136526;23;20025;-85
2023/11/30 10:05:28;;;;;;;8.07;4.03;;;2.50;99.90;;;;;;6134994;23;20024;-88
2023/11/30 10:07:59;;;;;;;10.52;4.47;;;2.50;99.90;;;;;;6182075;23;20111;-84
2023/11/30 10:10:27;;;;;;;10.13;4.47;;;2.50;99.90;;;;;;6189115;23;20394;-90
2023/11/30 10:12:57;;;;;;;7.95;4.10;;;2.60;99.90;;;;;;6166187;23;20048;-89
2023/11/30 10:15:55;;;;;;;8.20;4.20;;;2.60;99.90;;;;;;6170458;23;20324;-89
2023/11/30 10:18:22;;;;;;;8.88;4.10;;;2.60;99.90;;;;;;6164825;23;20409;-85
2023/11/30 10:20:50;;;;;;;8.82;4.35;;;2.60;99.90;;;;;;6164949;23;20393;-87
2023/11/30 10:23:21;;;;;;;10.60;4.93;;;2.70;99.90;;;;;;6164343;23;20024;-87
2023/11/30 10:25:53;;;;;;;13.30;5.72;;;2.70;99.90;;;;;;6188948;23;20489;-83
2023/11/30 10:28:21;;;;;;;12.13;5.88;;;2.70;99.90;;;;;;6140353;23;20016;-85
2023/11/30 10:30:53;;;;;;;12.45;5.97;;;2.70;99.90;;;;;;6141308;23;20103;-89
2023/11/30 10:33:23;;;;;;;10.63;5.32;;;2.70;99.90;;;;;;6164415;23;20017;-85
2023/11/30 10:35:52;;;;;;;12.45;5.97;;;2.70;99.90;;;;;;6165017;23;20079;-86
2023/11/30 10:38:28;;;;;;;14.53;6.53;;;2.70;99.90;;;;;;6164847;23;20453;-91
2023/11/30 10:41:09;;;;;;;11.25;5.90;;;2.70;99.90;;;;;;6141097;23;20278;-90
2023/11/30 10:43:40;;;;;;;12.80;6.50;;;2.60;99.90;;;;;;6190815;23;20434;-83
2023/11/30 10:46:08;;;;;;;12.80;5.53;;;2.60;99.90;;;;;;6165219;23;20024;-83
2023/11/30 10:48:38;;;;;;;12.27;6.43;;;2.60;99.90;;;;;;6166812;23;20032;-84
2023/11/30 10:51:21;;;;;;;12.98;6.63;;;2.60;99.90;;;;;;6189233;23;20055;-83
2023/11/30 10:54:00;;;;;;;15.10;6.13;;;2.60;99.90;;;;;;6188769;23;20024;-84
2023/11/30 10:56:29;;;;;;;12.05;5.70;;;2.60;99.90;;;;;;6189150;23;20017;-85
2023/11/30 10:58:58;;;;;;;13.02;5.57;;;2.60;99.90;;;;;;6165481;23;20021;-86
2023/11/30 11:01:26;;;;;;;14.85;5.05;;;2.60;99.90;;;;;;6191530;23;20017;-85
2023/11/30 11:03:55;;;;;;;12.18;4.63;;;2.60;99.90;;;;;;6165005;23;20079;-83
2023/11/30 11:06:26;;;;;;;10.38;5.40;;;2.60;99.90;;;;;;6140592;23;20028;-84
2023/11/30 11:08:59;;;;;;;12.43;5.13;;;2.60;99.90;;;;;;6164011;23;20353;-83
2023/11/30 11:11:30;;;;;;;10.70;5.13;;;2.60;99.90;;;;;;6166002;23;20513;-83
2023/11/30 11:13:57;;;;;;;12.10;5.70;;;2.60;99.90;;;;;;6166227;23;20020;-85
2023/11/30 11:16:42;;;;;;;10.63;4.70;;;2.60;99.90;;;;;;6190762;23;20088;-83
2023/11/30 11:19:10;;;;;;;16.08;6.72;;;2.70;99.90;;;;;;6167460;23;20021;-84
2023/11/30 11:21:39;;;;;;;16.25;5.93;;;2.70;99.90;;;;;;6166221;23;20016;-83
2023/11/30 11:24:07;;;;;;;12.40;6.00;;;2.70;99.90;;;;;;6191280;23;20038;-84
2023/11/30 11:26:46;;;;;;;13.88;6.32;;;2.80;99.90;;;;;;6190521;23;20029;-84
2023/11/30 11:29:15;;;;;;;13.38;6.53;;;2.80;99.90;;;;;;6166607;23;20465;-84
2023/11/30 11:31:54;;;;;;;14.20;6.32;;;2.80;99.90;;;;;;6174149;22;20032;-83
2023/11/30 11:34:21;;;;;;;12.50;5.78;;;2.80;99.90;;;;;;6218283;23;20020;-83
2023/11/30 11:36:51;;;;;;;13.98;6.60;;;2.90;99.90;;;;;;6186561;23;20031;-84
2023/11/30 11:39:21;;;;;;;13.63;5.75;;;3.00;99.90;;;;;;6177628;23;20024;-83
2023/11/30 11:41:49;;;;;;;16.55;7.05;;;3.00;99.90;;;;;;6176011;23;20438;-84
2023/11/30 11:44:27;;;;;;;14.13;6.88;;;3.00;99.90;;;;;;6197024;23;20016;-82
2023/11/30 11:47:04;;;;;;;16.98;8.20;;;3.00;99.90;;;;;;6173180;23;20096;-80
2023/11/30 11:49:31;;;;;;;16.88;8.10;;;2.90;99.90;;;;;;6190067;23;20040;-81
2023/11/30 11:51:59;;;;;;;13.95;7.25;;;3.00;99.90;;;;;;6165772;23;20016;-82
2023/11/30 11:54:26;;;;;;;17.33;8.43;;;2.90;99.90;;;;;;6190527;23;20019;-81
2023/11/30 11:56:53;;;;;;;13.90;6.55;;;3.00;99.90;;;;;;6190180;23;20119;-82
2023/11/30 11:59:27;;;;;;;15.98;7.80;;;3.00;99.90;;;;;;6165741;23;20469;-83
2023/11/30 12:01:57;;;;;;;14.90;6.88;;;3.00;99.90;;;;;;6165793;23;20358;-83
2023/11/30 12:04:36;;;;;;;21.38;9.18;;;3.00;99.90;;;;;;6189913;23;20119;-81
2023/11/30 12:07:14;;;;;;;16.95;7.47;;;3.00;99.90;;;;;;6186820;23;20074;-81
2023/11/30 12:09:42;;;;;;;13.55;6.43;;;3.00;99.90;;;;;;6160129;23;20031;-83
2023/11/30 12:12:09;;;;;;;15.35;7.78;;;3.00;99.90;;;;;;6135633;23;20448;-83
2023/11/30 12:14:36;;;;;;;16.77;8.30;;;3.00;99.90;;;;;;6135465;23;20021;-81
2023/11/30 12:17:03;;;;;;;16.13;7.18;;;3.00;99.90;;;;;;6135586;23;20348;-80
2023/11/30 12:19:30;;;;;;;17.77;7.15;;;3.00;99.90;;;;;;6135373;23;20017;-81
2023/11/30 12:21:57;;;;;;;13.57;6.38;;;3.00;99.90;;;;;;6159871;23;20024;-81
2023/11/30 12:24:24;;;;;;;17.02;7.75;;;3.00;99.90;;;;;;6135722;23;20052;-81
2023/11/30 12:26:51;;;;;;;14.70;6.38;;;3.00;99.90;;;;;;6135477;23;20029;-83
2023/11/30 12:29:19;;;;;;;16.52;7.60;;;3.00;99.90;;;;;;6160620;23;20390;-81
2023/11/30 12:31:53;;;;;;;14.85;7.20;;;3.00;99.90;;;;;;6135571;23;20035;-85
2023/11/30 12:34:22;;;;;;;15.20;7.25;;;3.10;99.90;;;;;;6135546;23;20469;-83
2023/11/30 12:36:54;;;;;;;16.27;7.80;;;3.10;99.90;;;;;;6137561;23;20021;-81
2023/11/30 12:39:21;;;;;;;14.23;6.65;;;3.10;99.90;;;;;;6160116;23;20044;-81
2023/11/30 12:41:52;;;;;;;13.23;6.10;;;3.10;99.90;;;;;;6160338;23;20013;-80
2023/11/30 12:44:20;;;;;;;14.03;6.33;;;3.20;99.90;;;;;;6135852;23;20072;-82
2023/11/30 12:46:47;;;;;;;13.38;5.90;;;3.20;99.90;;;;;;6135555;23;20023;-82
2023/11/30 12:49:14;;;;;;;17.48;7.15;;;3.20;99.90;;;;;;6134915;23;20072;-83
2023/11/30 12:51:41;;;;;;;15.27;6.70;;;3.20;99.90;;;;;;6160214;23;20355;-82
2023/11/30 12:54:08;;;;;;;19.35;8.15;;;3.20;99.90;;;;;;6135280;23;20383;-83
2023/11/30 12:56:35;;;;;;;16.67;6.75;;;3.20;99.90;;;;;;6111112;23;20028;-82
2023/11/30 12:59:03;;;;;;;17.35;7.65;;;3.20;99.90;;;;;;6111961;23;20045;-85
2023/11/30 13:01:30;;;;;;;15.30;6.10;;;3.10;99.90;;;;;;6160389;23;20033;-85
2023/11/30 13:03:58;;;;;;;15.88;7.00;;;3.20;99.90;;;;;;6136200;23;20025;-84
2023/11/30 13:06:36;;;;;;;15.27;7.05;;;3.20;99.90;;;;;;6144284;23;20032;-89
2023/11/30 13:09:20;;;;;;;15.93;7.60;;;3.20;99.90;;;;;;6163920;23;20088;-82
2023/11/30 13:11:48;;;;;;;15.85;7.40;;;3.30;99.90;;;;;;6135109;23;20517;-83
2023/11/30 13:14:15;;;;;;;14.70;6.60;;;3.20;99.90;;;;;;6111147;23;20025;-82
2023/11/30 13:16:42;;;;;;;18.13;8.23;;;3.20;99.90;;;;;;6136907;23;20043;-83
2023/11/30 13:19:09;;;;;;;16.58;7.75;;;3.20;99.90;;;;;;6111494;23;20099;-84
2023/11/30 13:21:37;;;;;;;12.45;6.05;;;3.20;99.90;;;;;;6136142;23;20017;-84
2023/11/30 13:24:07;;;;;;;16.20;7.13;;;3.20;99.90;;;;;;6160822;23;20032;-87
2023/11/30 13:26:36;;;;;;;16.00;7.90;;;3.20;99.90;;;;;;6138202;23;20021;-84
2023/11/30 13:29:04;;;;;;;14.63;7.00;;;3.10;99.90;;;;;;6114965;23;20048;-85
2023/11/30 13:31:34;;;;;;;17.52;7.78;;;3.10;99.90;;;;;;6160568;23;20027;-85
2023/11/30 13:34:01;;;;;;;19.77;9.07;;;3.10;99.90;;;;;;6135170;23;20344;-83
2023/11/30 13:36:39;;;;;;;;;;;;;;;;;;;;;
2023/11/30 13:39:17;;;;;;;13.95;6.30;;;3.10;99.90;;;;;;6186335;23;20017;-83
2023/11/30 13:41:47;;;;;;;13.65;5.97;;;3.10;99.90;;;;;;6135592;23;20021;-88
2023/11/30 13:45:25;;;;;;;;;;;;;;;;;;;;;
2023/11/30 13:48:44;;;;;;;17.15;7.38;;;3.10;99.90;;;;;;6146737;23;20032;-91
2023/11/30 13:51:14;;;;;;;14.20;5.68;;;3.10;99.90;;;;;;6161342;23;20024;-85
2023/11/30 13:54:36;;;;;;;;;;;;;;;;;;;;;
2023/11/30 13:57:24;;;;;;;12.68;5.57;;;3.10;99.90;;;;;;6159921;23;20048;-88
2023/11/30 13:59:52;;;;;;;14.27;5.55;;;3.00;99.90;;;;;;6135688;23;20021;-88
2023/11/30 14:02:25;;;;;;;10.43;5.18;;;3.10;99.90;;;;;;6161243;23;20100;-86
2023/11/30 14:05:17;;;;;;;16.67;6.43;;;3.10;99.90;;;;;;6135414;23;20024;-89
2023/11/30 14:08:06;;;;;;;15.23;7.65;;;3.00;99.90;;;;;;6153646;23;20035;-89
2023/11/30 14:10:38;;;;;;;16.35;6.30;;;3.00;99.90;;;;;;6165333;23;20076;-85
2023/11/30 14:13:43;;;;;;;17.90;8.35;;;3.00;99.90;;;;;;6165710;23;20075;-90
2023/11/30 14:16:10;;;;;;;16.30;6.90;;;3.00;99.90;;;;;;6164724;23;20354;-85
2023/11/30 14:22:26;;;;;;;12.98;5.85;;;3.00;99.90;;;;;;6162778;23;20096;-88
2023/11/30 14:24:54;;;;;;;14.65;5.85;;;3.00;99.90;;;;;;6164898;23;20493;-85
2023/11/30 14:27:50;;;;;;;14.07;6.35;;;3.00;99.90;;;;;;6165326;23;20071;-89
2023/11/30 14:30:17;;;;;;;15.85;7.65;;;3.00;99.90;;;;;;6164111;23;20446;-83
2023/11/30 14:32:45;;;;;;;14.80;6.28;;;2.90;99.90;;;;;;6140102;23;20104;-84
2023/11/30 14:35:52;;;;;;;11.77;5.68;;;2.90;99.90;;;;;;6189108;23;20021;-88
2023/11/30 14:38:19;;;;;;;12.27;5.18;;;2.90;99.90;;;;;;6188740;23;20324;-84
2023/11/30 14:40:46;;;;;;;12.15;5.40;;;2.90;99.90;;;;;;6189329;23;20041;-85
2023/11/30 14:43:14;;;;;;;11.57;5.57;;;2.90;99.90;;;;;;6139585;23;20021;-80
2023/11/30 14:45:41;;;;;;;11.98;6.03;;;2.90;99.90;;;;;;6165643;23;20024;-80
2023/11/30 14:48:09;;;;;;;12.90;6.82;;;2.90;99.90;;;;;;6142053;23;20024;-80
2023/11/30 14:50:36;;;;;;;11.27;5.72;;;2.90;99.90;;;;;;6166115;23;20381;-80
2023/11/30 14:53:04;;;;;;;13.15;6.38;;;2.90;99.90;;;;;;6166624;23;20091;-83
2023/11/30 14:55:53;;;;;;;15.35;6.55;;;2.90;99.90;;;;;;6169130;23;20023;-84
2023/11/30 14:58:25;;;;;;;13.65;5.85;;;2.90;99.90;;;;;;6167212;23;20017;-81
2023/11/30 15:00:52;;;;;;;13.45;6.00;;;2.80;99.90;;;;;;6166787;23;20016;-82
2023/11/30 15:03:20;;;;;;;13.07;5.93;;;2.90;99.90;;;;;;6191626;23;20017;-81
2023/11/30 15:05:47;;;;;;;12.35;6.18;;;2.90;99.90;;;;;;6190988;23;20078;-81
2023/11/30 15:08:17;;;;;;;14.35;6.43;;;2.90;99.90;;;;;;6143594;23;20070;-81
2023/11/30 15:10:48;;;;;;;14.18;6.65;;;2.90;99.90;;;;;;6218877;23;20128;-81
2023/11/30 15:13:15;;;;;;;14.40;6.63;;;2.80;99.90;;;;;;6167214;23;20104;-80
2023/11/30 15:15:44;;;;;;;13.75;6.15;;;2.80;99.90;;;;;;6166789;23;20013;-81
2023/11/30 15:18:11;;;;;;;12.93;5.30;;;2.80;99.90;;;;;;6191486;23;20066;-82
2023/11/30 15:20:39;;;;;;;15.93;6.68;;;2.80;99.90;;;;;;6166405;23;20073;-82
2023/11/30 15:23:06;;;;;;;14.75;6.57;;;2.70;99.90;;;;;;6166076;23;20067;-81
2023/11/30 15:25:33;;;;;;;16.38;8.10;;;2.70;99.90;;;;;;6190685;23;20020;-81
2023/11/30 15:28:00;;;;;;;18.85;9.98;;;2.70;99.90;;;;;;6190081;23;20058;-82
2023/11/30 15:30:27;;;;;;;24.25;10.82;;;2.60;99.90;;;;;;6166225;23;20020;-81
2023/11/30 15:32:55;;;;;;;19.85;9.32;;;2.50;99.90;;;;;;6141447;23;20028;-81
2023/11/30 15:35:22;;;;;;;20.80;10.05;;;2.50;99.90;;;;;;6166187;23;20435;-81
2023/11/30 15:37:49;;;;;;;21.40;9.80;;;2.40;99.90;;;;;;6190279;23;20027;-81
2023/11/30 15:40:17;;;;;;;17.92;8.73;;;2.30;99.90;;;;;;6141606;23;20457;-81
2023/11/30 15:42:45;;;;;;;18.10;7.97;;;2.30;99.90;;;;;;6165228;23;20039;-80
2023/11/30 15:45:16;;;;;;;17.50;8.43;;;2.30;99.90;;;;;;6217345;23;20051;-84
2023/11/30 15:47:45;;;;;;;16.88;7.93;;;2.30;99.90;;;;;;6166425;23;20347;-84
2023/11/30 15:50:15;;;;;;;16.70;7.10;;;2.20;99.90;;;;;;6166770;23;20034;-84
2023/11/30 15:52:43;;;;;;;15.15;6.70;;;2.20;99.90;;;;;;6190767;23;20449;-85
2023/11/30 15:55:16;;;;;;;13.98;7.30;;;2.10;99.90;;;;;;6165538;23;20513;-89
2023/11/30 15:57:44;;;;;;;13.63;6.65;;;2.20;99.90;;;;;;6190192;23;20024;-85
2023/11/30 16:00:12;;;;;;;14.43;6.38;;;2.20;99.90;;;;;;6165974;23;20023;-84
2023/11/30 16:02:43;;;;;;;11.38;5.95;;;2.10;99.90;;;;;;6190703;23;20505;-85
2023/11/30 16:05:31;;;;;;;13.03;5.30;;;2.20;99.90;;;;;;6166019;23;20021;-89
2023/11/30 16:07:58;;;;;;;15.00;5.77;;;2.20;99.90;;;;;;6159969;23;20029;-85
2023/11/30 16:10:28;;;;;;;15.13;6.67;;;2.10;99.90;;;;;;6160753;23;20025;-88
2023/11/30 16:12:57;;;;;;;14.18;5.95;;;2.10;99.90;;;;;;6136988;23;20021;-87
2023/11/30 16:15:33;;;;;;;10.88;5.55;;;2.10;99.90;;;;;;6140480;23;20009;-84
2023/11/30 16:18:09;;;;;;;12.38;6.40;;;2.10;99.90;;;;;;6136541;23;20464;-89
2023/11/30 16:20:51;;;;;;;12.10;5.75;;;2.10;99.90;;;;;;6111285;23;20021;-88
2023/11/30 16:23:18;;;;;;;16.92;7.80;;;2.10;99.90;;;;;;6135504;23;20021;-83
2023/11/30 16:25:46;;;;;;;15.52;7.70;;;2.00;99.90;;;;;;6161214;23;20049;-86
2023/11/30 16:28:24;;;;;;;14.70;7.38;;;1.90;99.90;;;;;;6161195;23;20029;-90
2023/11/30 16:30:52;;;;;;;11.77;5.95;;;1.90;99.90;;;;;;6137973;23;20029;-87
2023/11/30 16:33:22;;;;;;;12.60;5.80;;;1.90;99.90;;;;;;6137928;23;20081;-90
2023/11/30 16:35:49;;;;;;;10.32;5.05;;;1.90;99.90;;;;;;6137991;23;20013;-88
2023/11/30 16:38:36;;;;;;;;;;;;;;;;;;;;;
2023/11/30 16:41:56;;;;;;;;;;;;;;;;;;;;;
2023/11/30 16:45:04;;;;;;;12.05;6.38;;;1.70;99.90;;;;;;6067346;23;20019;-89
2023/11/30 16:48:46;;;;;;;;;;;;;;;;;;;;;
2023/11/30 16:51:39;;;;;;;15.70;7.27;;;1.60;99.90;;;;;;6046899;23;20022;-91
2023/11/30 16:55:08;;;;;;;14.53;5.77;;;1.50;99.90;;;;;;6051761;23;20129;-93
2023/11/30 16:58:07;;;;;;;13.63;6.18;;;1.50;99.90;;;;;;6047936;23;20106;-93
2023/11/30 17:00:42;;;;;;;12.93;5.93;;;1.60;99.90;;;;;;6015392;23;20019;-88
2023/11/30 17:04:13;;;;;;;10.77;4.65;;;1.50;99.90;;;;;;6048583;23;20030;-85
2023/11/30 17:06:40;;;;;;;9.75;4.63;;;1.50;99.90;;;;;;6042467;23;20049;-85
2023/11/30 17:09:09;;;;;;;11.52;4.30;;;1.50;99.90;;;;;;6042316;23;20027;-86
2023/11/30 17:11:36;;;;;;;9.57;4.30;;;1.50;99.90;;;;;;6071530;23;20403;-86
2023/11/30 17:14:12;;;;;;;12.27;5.00;;;1.50;99.90;;;;;;6130492;23;20072;-84